createdAt,value
2023-05-01T00:00:39.104Z,1019.68
2023-05-01T00:01:39.406Z,1019.65
2023-05-01T00:02:39.859Z,1019.67
2023-05-01T00:03:40.283Z,1019.64
2023-05-01T00:04:40.542Z,1019.57
2023-05-01T00:05:40.849Z,1019.56
2023-05-01T00:06:41.285Z,1019.56
2023-05-01T00:07:41.562Z,1019.48
2023-05-01T00:08:41.845Z,1019.52
2023-05-01T00:09:42.230Z,1019.49
2023-05-01T00:10:42.574Z,1019.51
2023-05-01T00:11:42.913Z,1019.46
2023-05-01T00:12:43.266Z,1019.49
2023-05-01T00:13:43.613Z,1019.43
2023-05-01T00:14:43.954Z,1019.44
2023-05-01T00:15:44.374Z,1019.46
2023-05-01T00:16:44.690Z,1019.47
2023-05-01T00:17:45.066Z,1019.48
2023-05-01T00:18:45.380Z,1019.47
2023-05-01T00:19:45.731Z,1019.40
2023-05-01T00:20:46.136Z,1019.47
2023-05-01T00:21:46.433Z,1019.39
2023-05-01T00:22:46.757Z,1019.41
2023-05-01T00:23:47.103Z,1019.41
2023-05-01T00:24:47.434Z,1019.39
2023-05-01T00:25:47.808Z,1019.41
2023-05-01T00:26:48.164Z,1019.38
2023-05-01T00:27:48.510Z,1019.35
2023-05-01T00:28:48.893Z,1019.37
2023-05-01T00:29:49.193Z,1019.37
2023-05-01T00:30:49.570Z,1019.37
2023-05-01T00:31:50.028Z,1019.35
2023-05-01T00:32:50.305Z,1019.35
2023-05-01T00:33:50.611Z,1019.31
2023-05-01T00:34:50.976Z,1019.32
2023-05-01T00:35:51.332Z,1019.32
2023-05-01T00:36:51.672Z,1019.35
2023-05-01T00:37:52.027Z,1019.29
2023-05-01T00:38:52.389Z,1019.25
2023-05-01T00:39:52.728Z,1019.29
2023-05-01T00:40:53.071Z,1019.24
2023-05-01T00:41:53.433Z,1019.24
2023-05-01T00:42:53.768Z,1019.25
2023-05-01T00:43:54.102Z,1019.20
2023-05-01T00:44:54.458Z,1019.19
2023-05-01T00:45:54.873Z,1019.16
2023-05-01T00:46:55.165Z,1019.16
2023-05-01T00:47:55.622Z,1019.18
2023-05-01T00:48:55.843Z,1019.18
2023-05-01T00:49:56.613Z,1019.21
2023-05-01T00:50:56.611Z,1019.14
2023-05-01T00:51:56.925Z,1019.16
2023-05-01T00:52:57.295Z,1019.15
2023-05-01T00:53:57.666Z,1019.13
2023-05-01T00:54:57.969Z,1019.10
2023-05-01T00:55:58.375Z,1019.09
2023-05-01T00:56:58.679Z,1019.05
2023-05-01T00:57:59.022Z,1019.03
2023-05-01T00:58:59.393Z,1019.04
2023-05-01T00:59:59.728Z,1019.00
2023-05-01T01:01:00.201Z,1019.02
2023-05-01T01:02:00.406Z,1019.03
2023-05-01T01:03:00.801Z,1019.03
2023-05-01T01:04:01.177Z,1019.01
2023-05-01T01:05:01.480Z,1018.97
2023-05-01T01:06:01.912Z,1018.99
2023-05-01T01:07:02.175Z,1018.94
2023-05-01T01:08:02.528Z,1018.97
2023-05-01T01:09:02.855Z,1018.99
2023-05-01T01:10:03.220Z,1018.93
2023-05-01T01:11:03.601Z,1018.97
2023-05-01T01:12:04.030Z,1018.97
2023-05-01T01:13:04.280Z,1018.95
2023-05-01T01:14:04.624Z,1018.97
2023-05-01T01:15:04.970Z,1018.95
2023-05-01T01:16:05.336Z,1018.97
2023-05-01T01:17:05.814Z,1018.92
2023-05-01T01:18:06.150Z,1018.96
2023-05-01T01:19:06.373Z,1018.94
2023-05-01T01:20:06.734Z,1018.95
2023-05-01T01:21:07.118Z,1018.92
2023-05-01T01:22:07.411Z,1018.92
2023-05-01T01:23:07.756Z,1018.93
2023-05-01T01:24:08.099Z,1018.93
2023-05-01T01:25:08.446Z,1018.94
2023-05-01T01:26:08.791Z,1018.90
2023-05-01T01:27:09.133Z,1018.89
2023-05-01T01:28:09.467Z,1018.89
2023-05-01T01:29:09.830Z,1018.90
2023-05-01T01:30:10.181Z,1018.96
2023-05-01T01:31:10.600Z,1018.90
2023-05-01T01:32:10.853Z,1018.88
2023-05-01T01:33:11.180Z,1018.90
2023-05-01T01:34:11.537Z,1018.88
2023-05-01T01:35:11.893Z,1018.84
2023-05-01T01:36:12.306Z,1018.89
2023-05-01T01:37:12.572Z,1018.87
2023-05-01T01:38:12.926Z,1018.85
2023-05-01T01:39:13.282Z,1018.81
2023-05-01T01:40:13.617Z,1018.82
2023-05-01T01:41:13.997Z,1018.78
2023-05-01T01:42:14.343Z,1018.80
2023-05-01T01:43:14.690Z,1018.81
2023-05-01T01:44:15.070Z,1018.77
2023-05-01T01:45:15.393Z,1018.76
2023-05-01T01:46:15.815Z,1018.83
2023-05-01T01:47:16.076Z,1018.76
2023-05-01T01:48:16.478Z,1018.81
2023-05-01T01:49:18.534Z,1018.79
2023-05-01T01:50:17.146Z,1018.77
2023-05-01T01:51:17.464Z,1018.82
2023-05-01T01:52:17.803Z,1018.75
2023-05-01T01:53:18.236Z,1018.78
2023-05-01T01:54:18.520Z,1018.76
2023-05-01T01:55:18.872Z,1018.75
2023-05-01T01:56:19.239Z,1018.75
2023-05-01T01:57:19.579Z,1018.72
2023-05-01T01:58:19.944Z,1018.71
2023-05-01T01:59:20.284Z,1018.70
2023-05-01T02:00:20.683Z,1018.73
2023-05-01T02:01:21.012Z,1018.65
2023-05-01T02:02:21.307Z,1018.65
2023-05-01T02:03:21.752Z,1018.58
2023-05-01T02:04:21.981Z,1018.61
2023-05-01T02:05:22.316Z,1018.58
2023-05-01T02:06:22.743Z,1018.60
2023-05-01T02:07:23.011Z,1018.60
2023-05-01T02:08:23.360Z,1018.61
2023-05-01T02:09:23.716Z,1018.59
2023-05-01T02:10:24.055Z,1018.59
2023-05-01T02:11:24.423Z,1018.57
2023-05-01T02:12:24.817Z,1018.53
2023-05-01T02:13:25.107Z,1018.52
2023-05-01T02:14:25.474Z,1018.56
2023-05-01T02:15:25.792Z,1018.51
2023-05-01T02:16:26.174Z,1018.48
2023-05-01T02:17:26.587Z,1018.42
2023-05-01T02:18:26.874Z,1018.50
2023-05-01T02:19:27.244Z,1018.40
2023-05-01T02:20:27.581Z,1018.41
2023-05-01T02:21:27.975Z,1018.35
2023-05-01T02:22:28.320Z,1018.37
2023-05-01T02:23:28.661Z,1018.29
2023-05-01T02:24:28.977Z,1018.36
2023-05-01T02:25:29.710Z,1018.39
2023-05-01T02:26:29.729Z,1018.35
2023-05-01T02:27:30.041Z,1018.38
2023-05-01T02:28:30.395Z,1018.36
2023-05-01T02:29:30.756Z,1018.31
2023-05-01T02:30:31.085Z,1018.31
2023-05-01T02:31:31.539Z,1018.23
2023-05-01T02:32:31.833Z,1018.29
2023-05-01T02:33:32.218Z,1018.32
2023-05-01T02:34:32.487Z,1018.30
2023-05-01T02:35:32.828Z,1018.24
2023-05-01T02:36:33.197Z,1018.24
2023-05-01T02:37:33.523Z,1018.30
2023-05-01T02:38:33.904Z,1018.28
2023-05-01T02:39:34.218Z,1018.24
2023-05-01T02:40:34.566Z,1018.26
2023-05-01T02:41:34.971Z,1018.22
2023-05-01T02:42:35.255Z,1018.22
2023-05-01T02:43:35.586Z,1018.27
2023-05-01T02:44:35.950Z,1018.25
2023-05-01T02:45:36.313Z,1018.25
2023-05-01T02:46:36.684Z,1018.25
2023-05-01T02:47:37.023Z,1018.25
2023-05-01T02:48:37.332Z,1018.27
2023-05-01T02:49:37.668Z,1018.26
2023-05-01T02:50:38.007Z,1018.27
2023-05-01T02:51:38.370Z,1018.23
2023-05-01T02:52:38.721Z,1018.23
2023-05-01T02:53:39.065Z,1018.20
2023-05-01T02:54:39.410Z,1018.19
2023-05-01T02:55:39.763Z,1018.20
2023-05-01T02:56:40.126Z,1018.19
2023-05-01T02:57:40.479Z,1018.22
2023-05-01T02:58:40.821Z,1018.16
2023-05-01T02:59:41.211Z,1018.15
2023-05-01T03:00:41.551Z,1018.12
2023-05-01T03:01:42.028Z,1018.14
2023-05-01T03:02:42.342Z,1018.10
2023-05-01T03:03:42.743Z,1018.05
2023-05-01T03:04:43.084Z,1018.04
2023-05-01T03:05:43.322Z,1018.05
2023-05-01T03:06:43.579Z,1018.05
2023-05-01T03:07:43.801Z,1018.04
2023-05-01T03:08:44.083Z,1018.02
2023-05-01T03:09:44.385Z,1018.02
2023-05-01T03:10:44.662Z,1018.02
2023-05-01T03:11:44.975Z,1018.05
2023-05-01T03:12:45.110Z,1018.05
2023-05-01T03:13:45.414Z,1018.03
2023-05-01T03:14:45.689Z,1018.03
2023-05-01T03:15:45.998Z,1018.01
2023-05-01T03:16:46.351Z,1017.95
2023-05-01T03:17:46.574Z,1017.94
2023-05-01T03:18:46.817Z,1017.91
2023-05-01T03:19:47.096Z,1017.91
2023-05-01T03:20:47.372Z,1017.92
2023-05-01T03:21:47.703Z,1017.95
2023-05-01T03:22:47.965Z,1017.90
2023-05-01T03:23:48.265Z,1017.92
2023-05-01T03:24:48.454Z,1017.87
2023-05-01T03:25:48.719Z,1017.88
2023-05-01T03:26:49.013Z,1017.87
2023-05-01T03:27:49.277Z,1017.87
2023-05-01T03:28:49.435Z,1017.86
2023-05-01T03:29:49.756Z,1017.86
2023-05-01T03:30:50.124Z,1017.83
2023-05-01T03:31:50.431Z,1017.77
2023-05-01T03:32:50.662Z,1017.78
2023-05-01T03:33:50.904Z,1017.76
2023-05-01T03:34:51.117Z,1017.81
2023-05-01T03:35:51.244Z,1017.80
2023-05-01T03:36:51.543Z,1017.76
2023-05-01T03:37:51.808Z,1017.77
2023-05-01T03:38:52.124Z,1017.76
2023-05-01T03:39:52.296Z,1017.76
2023-05-01T03:40:52.452Z,1017.77
2023-05-01T03:41:52.682Z,1017.72
2023-05-01T03:42:52.895Z,1017.71
2023-05-01T03:43:53.202Z,1017.72
2023-05-01T03:44:53.367Z,1017.68
2023-05-01T03:45:53.690Z,1017.65
2023-05-01T03:46:54.004Z,1017.65
2023-05-01T03:47:54.228Z,1017.59
2023-05-01T03:48:54.296Z,1017.61
2023-05-01T03:49:54.656Z,1017.64
2023-05-01T03:50:54.640Z,1017.61
2023-05-01T03:51:54.985Z,1017.58
2023-05-01T03:52:55.126Z,1017.60
2023-05-01T03:53:55.299Z,1017.56
2023-05-01T03:54:55.465Z,1017.56
2023-05-01T03:55:55.656Z,1017.52
2023-05-01T03:56:55.841Z,1017.53
2023-05-01T03:57:55.991Z,1017.56
2023-05-01T03:58:56.274Z,1017.48
2023-05-01T03:59:56.720Z,1017.49
2023-05-01T04:00:56.610Z,1017.51
2023-05-01T04:01:56.841Z,1017.52
2023-05-01T04:02:57.202Z,1017.47
2023-05-01T04:03:57.173Z,1017.46
2023-05-01T04:04:57.295Z,1017.48
2023-05-01T04:05:57.686Z,1017.46
2023-05-01T04:06:57.791Z,1017.45
2023-05-01T04:07:58.053Z,1017.43
2023-05-01T04:08:58.271Z,1017.49
2023-05-01T04:09:58.518Z,1017.44
2023-05-01T04:10:58.721Z,1017.45
2023-05-01T04:11:58.945Z,1017.42
2023-05-01T04:12:59.046Z,1017.42
2023-05-01T04:13:59.245Z,1017.39
2023-05-01T04:14:59.398Z,1017.42
2023-05-01T04:15:59.608Z,1017.41
2023-05-01T04:16:59.733Z,1017.43
2023-05-01T04:18:00.036Z,1017.38
2023-05-01T04:19:00.340Z,1017.36
2023-05-01T04:20:00.486Z,1017.40
2023-05-01T04:21:00.782Z,1017.40
2023-05-01T04:22:00.984Z,1017.40
2023-05-01T04:23:01.153Z,1017.42
2023-05-01T04:24:01.298Z,1017.45
2023-05-01T04:25:01.594Z,1017.39
2023-05-01T04:26:01.771Z,1017.42
2023-05-01T04:27:02.024Z,1017.38
2023-05-01T04:28:02.183Z,1017.37
2023-05-01T04:29:02.314Z,1017.39
2023-05-01T04:30:02.502Z,1017.39
2023-05-01T04:31:02.696Z,1017.35
2023-05-01T04:32:02.992Z,1017.28
2023-05-01T04:33:03.235Z,1017.30
2023-05-01T04:34:03.475Z,1017.32
2023-05-01T04:35:04.233Z,1017.27
2023-05-01T04:36:03.923Z,1017.32
2023-05-01T04:37:04.334Z,1017.29
2023-05-01T04:38:04.408Z,1017.31
2023-05-01T04:39:04.702Z,1017.30
2023-05-01T04:40:05.008Z,1017.29
2023-05-01T04:41:05.314Z,1017.32
2023-05-01T04:42:05.501Z,1017.28
2023-05-01T04:43:05.685Z,1017.25
2023-05-01T04:44:06.030Z,1017.28
2023-05-01T04:45:06.177Z,1017.28
2023-05-01T04:46:06.420Z,1017.28
2023-05-01T04:47:06.807Z,1017.26
2023-05-01T04:48:07.041Z,1017.27
2023-05-01T04:49:07.142Z,1017.22
2023-05-01T04:50:07.317Z,1017.23
2023-05-01T04:51:07.528Z,1017.23
2023-05-01T04:52:07.701Z,1017.20
2023-05-01T04:53:07.885Z,1017.17
2023-05-01T04:54:08.153Z,1017.20
2023-05-01T04:55:08.457Z,1017.22
2023-05-01T04:56:08.765Z,1017.23
2023-05-01T04:57:08.981Z,1017.23
2023-05-01T04:58:09.132Z,1017.26
2023-05-01T04:59:09.429Z,1017.24
2023-05-01T05:00:09.799Z,1017.19
2023-05-01T05:01:10.030Z,1017.22
2023-05-01T05:02:10.252Z,1017.21
2023-05-01T05:03:10.567Z,1017.20
2023-05-01T05:04:10.697Z,1017.21
2023-05-01T05:05:10.900Z,1017.24
2023-05-01T05:06:11.250Z,1017.25
2023-05-01T05:07:11.492Z,1017.15
2023-05-01T05:08:11.663Z,1017.19
2023-05-01T05:09:11.839Z,1017.17
2023-05-01T05:10:12.155Z,1017.19
2023-05-01T05:11:12.345Z,1017.21
2023-05-01T05:12:12.658Z,1017.20
2023-05-01T05:13:12.936Z,1017.19
2023-05-01T05:14:13.267Z,1017.20
2023-05-01T05:15:13.508Z,1017.16
2023-05-01T05:16:13.770Z,1017.15
2023-05-01T05:17:14.021Z,1017.16
2023-05-01T05:18:14.246Z,1017.18
2023-05-01T05:19:14.500Z,1017.17
2023-05-01T05:20:14.676Z,1017.11
2023-05-01T05:21:14.886Z,1017.15
2023-05-01T05:22:15.074Z,1017.10
2023-05-01T05:23:15.304Z,1017.12
2023-05-01T05:24:15.408Z,1017.11
2023-05-01T05:25:15.582Z,1017.10
2023-05-01T05:26:15.754Z,1017.09
2023-05-01T05:27:15.985Z,1017.04
2023-05-01T05:28:16.253Z,1017.09
2023-05-01T05:29:16.404Z,1017.08
2023-05-01T05:30:16.735Z,1017.05
2023-05-01T05:31:17.032Z,1017.07
2023-05-01T05:32:17.312Z,1017.07
2023-05-01T05:33:17.576Z,1017.04
2023-05-01T05:34:17.694Z,1017.07
2023-05-01T05:35:17.860Z,1017.02
2023-05-01T05:36:18.180Z,1017.07
2023-05-01T05:37:18.366Z,1017.05
2023-05-01T05:38:18.592Z,1017.04
2023-05-01T05:39:18.838Z,1017.05
2023-05-01T05:40:19.027Z,1017.01
2023-05-01T05:41:19.324Z,1017.02
2023-05-01T05:42:19.515Z,1017.02
2023-05-01T05:43:19.706Z,1017.04
2023-05-01T05:44:19.869Z,1016.99
2023-05-01T05:45:20.171Z,1016.98
2023-05-01T05:46:20.596Z,1016.99
2023-05-01T05:47:20.689Z,1016.97
2023-05-01T05:48:21.036Z,1016.96
2023-05-01T05:49:21.139Z,1016.96
2023-05-01T05:50:21.474Z,1016.94
2023-05-01T05:51:21.613Z,1016.91
2023-05-01T05:52:21.937Z,1016.93
2023-05-01T05:53:24.320Z,1016.89
2023-05-01T05:54:22.296Z,1016.88
2023-05-01T05:55:22.616Z,1016.84
2023-05-01T05:56:22.788Z,1016.83
2023-05-01T05:57:22.978Z,1016.83
2023-05-01T05:58:23.394Z,1016.80
2023-05-01T05:59:23.327Z,1016.76
2023-05-01T06:00:23.525Z,1016.77
2023-05-01T06:01:23.735Z,1016.78
2023-05-01T06:02:24.129Z,1016.73
2023-05-01T06:03:24.439Z,1016.77
2023-05-01T06:04:24.380Z,1016.70
2023-05-01T06:05:24.627Z,1016.71
2023-05-01T06:06:24.890Z,1016.72
2023-05-01T06:07:25.052Z,1016.69
2023-05-01T06:08:25.217Z,1016.65
2023-05-01T06:09:25.513Z,1016.67
2023-05-01T06:10:25.684Z,1016.66
2023-05-01T06:11:25.987Z,1016.69
2023-05-01T06:12:26.180Z,1016.63
2023-05-01T06:13:26.458Z,1016.65
2023-05-01T06:14:26.784Z,1016.66
2023-05-01T06:15:27.078Z,1016.63
2023-05-01T06:16:27.368Z,1016.60
2023-05-01T06:17:27.565Z,1016.61
2023-05-01T06:18:27.845Z,1016.60
2023-05-01T06:19:28.139Z,1016.58
2023-05-01T06:20:28.351Z,1016.53
2023-05-01T06:21:28.518Z,1016.53
2023-05-01T06:22:28.857Z,1016.57
2023-05-01T06:23:29.006Z,1016.57
2023-05-01T06:24:29.201Z,1016.62
2023-05-01T06:25:29.476Z,1016.63
2023-05-01T06:26:29.777Z,1016.61
2023-05-01T06:27:29.985Z,1016.56
2023-05-01T06:28:30.128Z,1016.62
2023-05-01T06:29:30.314Z,1016.60
2023-05-01T06:30:30.505Z,1016.62
2023-05-01T06:31:30.709Z,1016.57
2023-05-01T06:32:30.941Z,1016.60
2023-05-01T06:33:31.072Z,1016.61
2023-05-01T06:34:31.285Z,1016.60
2023-05-01T06:35:31.446Z,1016.61
2023-05-01T06:36:31.639Z,1016.56
2023-05-01T06:37:31.856Z,1016.54
2023-05-01T06:38:32.005Z,1016.52
2023-05-01T06:39:32.194Z,1016.52
2023-05-01T06:40:32.379Z,1016.55
2023-05-01T06:41:32.569Z,1016.53
2023-05-01T06:42:32.785Z,1016.47
2023-05-01T06:43:32.933Z,1016.43
2023-05-01T06:44:33.130Z,1016.48
2023-05-01T06:45:33.326Z,1016.47
2023-05-01T06:46:33.562Z,1016.45
2023-05-01T06:47:33.704Z,1016.40
2023-05-01T06:48:33.840Z,1016.43
2023-05-01T06:49:34.004Z,1016.42
2023-05-01T06:50:34.213Z,1016.46
2023-05-01T06:51:34.396Z,1016.39
2023-05-01T06:52:34.610Z,1016.35
2023-05-01T06:53:34.847Z,1016.34
2023-05-01T06:54:34.943Z,1016.32
2023-05-01T06:55:35.933Z,1016.35
2023-05-01T06:56:35.315Z,1016.30
2023-05-01T06:57:35.526Z,1016.32
2023-05-01T06:58:35.679Z,1016.31
2023-05-01T06:59:35.868Z,1016.26
2023-05-01T07:00:36.097Z,1016.24
2023-05-01T07:01:36.288Z,1016.24
2023-05-01T07:02:36.547Z,1016.23
2023-05-01T07:03:36.671Z,1016.25
2023-05-01T07:04:36.791Z,1016.24
2023-05-01T07:05:36.967Z,1016.22
2023-05-01T07:06:37.267Z,1016.18
2023-05-01T07:07:38.918Z,1016.11
2023-05-01T07:08:37.551Z,1016.16
2023-05-01T07:09:37.726Z,1016.15
2023-05-01T07:10:39.272Z,1016.08
2023-05-01T07:11:38.115Z,1016.12
2023-05-01T07:12:38.404Z,1016.07
2023-05-01T07:13:38.540Z,1016.11
2023-05-01T07:14:38.670Z,1016.07
2023-05-01T07:15:38.934Z,1016.07
2023-05-01T07:16:39.068Z,1016.05
2023-05-01T07:17:39.333Z,1016.09
2023-05-01T07:18:39.439Z,1016.10
2023-05-01T07:19:39.614Z,1016.11
2023-05-01T07:20:39.874Z,1016.04
2023-05-01T07:21:40.014Z,1016.08
2023-05-01T07:22:40.242Z,1016.03
2023-05-01T07:23:40.368Z,1015.94
2023-05-01T07:24:40.554Z,1016.00
2023-05-01T07:25:40.769Z,1016.01
2023-05-01T07:26:40.952Z,1015.99
2023-05-01T07:27:41.182Z,1016.02
2023-05-01T07:28:41.307Z,1016.02
2023-05-01T07:29:41.528Z,1015.93
2023-05-01T07:30:41.669Z,1015.86
2023-05-01T07:31:41.906Z,1015.91
2023-05-01T07:32:42.129Z,1015.87
2023-05-01T07:33:42.242Z,1015.87
2023-05-01T07:34:42.433Z,1015.88
2023-05-01T07:35:42.630Z,1015.86
2023-05-01T07:36:42.790Z,1015.88
2023-05-01T07:37:43.011Z,1015.90
2023-05-01T07:38:43.172Z,1015.90
2023-05-01T07:39:43.371Z,1015.81
2023-05-01T07:40:43.544Z,1015.81
2023-05-01T07:41:43.748Z,1015.82
2023-05-01T07:42:43.969Z,1015.82
2023-05-01T07:43:44.095Z,1015.84
2023-05-01T07:44:44.292Z,1015.82
2023-05-01T07:45:44.507Z,1015.77
2023-05-01T07:46:44.655Z,1015.78
2023-05-01T07:47:44.893Z,1015.76
2023-05-01T07:48:45.050Z,1015.75
2023-05-01T07:49:45.231Z,1015.72
2023-05-01T07:50:45.425Z,1015.71
2023-05-01T07:51:45.672Z,1015.73
2023-05-01T07:52:45.855Z,1015.71
2023-05-01T07:53:45.970Z,1015.69
2023-05-01T07:54:46.163Z,1015.66
2023-05-01T07:55:46.362Z,1015.64
2023-05-01T07:56:48.587Z,1015.66
2023-05-01T07:57:46.757Z,1015.67
2023-05-01T07:58:46.934Z,1015.64
2023-05-01T07:59:47.125Z,1015.61
2023-05-01T08:00:47.317Z,1015.62
2023-05-01T08:01:47.504Z,1015.60
2023-05-01T08:02:47.756Z,1015.58
2023-05-01T08:03:50.259Z,1015.61
2023-05-01T08:04:48.105Z,1015.53
2023-05-01T08:05:48.259Z,1015.57
2023-05-01T08:06:48.486Z,1015.56
2023-05-01T08:07:48.713Z,1015.57
2023-05-01T08:08:48.839Z,1015.51
2023-05-01T08:09:49.035Z,1015.57
2023-05-01T08:10:49.218Z,1015.55
2023-05-01T08:11:49.403Z,1015.55
2023-05-01T08:12:49.608Z,1015.54
2023-05-01T08:13:49.768Z,1015.54
2023-05-01T08:14:49.964Z,1015.57
2023-05-01T08:15:50.187Z,1015.57
2023-05-01T08:16:50.322Z,1015.57
2023-05-01T08:17:50.676Z,1015.54
2023-05-01T08:18:50.685Z,1015.54
2023-05-01T08:19:50.860Z,1015.54
2023-05-01T08:20:51.062Z,1015.47
2023-05-01T08:21:51.271Z,1015.50
2023-05-01T08:22:51.465Z,1015.44
2023-05-01T08:23:51.576Z,1015.46
2023-05-01T08:24:51.772Z,1015.46
2023-05-01T08:25:51.966Z,1015.43
2023-05-01T08:26:52.139Z,1015.43
2023-05-01T08:27:52.356Z,1015.42
2023-05-01T08:28:52.506Z,1015.43
2023-05-01T08:29:52.693Z,1015.44
2023-05-01T08:30:52.903Z,1015.47
2023-05-01T08:31:53.137Z,1015.43
2023-05-01T08:32:53.391Z,1015.40
2023-05-01T08:33:53.459Z,1015.43
2023-05-01T08:34:53.693Z,1015.36
2023-05-01T08:35:53.872Z,1015.38
2023-05-01T08:36:54.135Z,1015.38
2023-05-01T08:37:54.240Z,1015.42
2023-05-01T08:38:54.404Z,1015.39
2023-05-01T08:39:54.717Z,1015.37
2023-05-01T08:40:54.792Z,1015.39
2023-05-01T08:41:54.929Z,1015.39
2023-05-01T08:42:55.143Z,1015.35
2023-05-01T08:43:55.281Z,1015.37
2023-05-01T08:44:55.466Z,1015.39
2023-05-01T08:45:55.648Z,1015.36
2023-05-01T08:46:55.962Z,1015.37
2023-05-01T08:47:56.048Z,1015.40
2023-05-01T08:48:56.189Z,1015.36
2023-05-01T08:49:56.636Z,1015.35
2023-05-01T08:50:56.567Z,1015.35
2023-05-01T08:51:56.730Z,1015.28
2023-05-01T08:52:56.905Z,1015.32
2023-05-01T08:53:57.073Z,1015.30
2023-05-01T08:54:57.278Z,1015.30
2023-05-01T08:55:57.460Z,1015.28
2023-05-01T08:56:57.637Z,1015.25
2023-05-01T08:57:57.822Z,1015.27
2023-05-01T08:58:57.981Z,1015.28
2023-05-01T08:59:58.436Z,1015.20
2023-05-01T09:00:58.371Z,1015.19
2023-05-01T09:01:58.584Z,1015.17
2023-05-01T09:02:58.835Z,1015.19
2023-05-01T09:03:59.059Z,1015.16
2023-05-01T09:04:59.135Z,1015.13
2023-05-01T09:05:59.488Z,1015.10
2023-05-01T09:06:59.521Z,1015.12
2023-05-01T09:07:59.709Z,1015.14
2023-05-01T09:08:59.882Z,1015.06
2023-05-01T09:10:00.126Z,1015.03
2023-05-01T09:11:00.250Z,1015.04
2023-05-01T09:12:00.450Z,1015.11
2023-05-01T09:13:00.655Z,1015.11
2023-05-01T09:14:00.841Z,1015.01
2023-05-01T09:15:00.962Z,1015.04
2023-05-01T09:16:01.287Z,1015.06
2023-05-01T09:17:01.345Z,1015.02
2023-05-01T09:18:03.603Z,1014.99
2023-05-01T09:19:01.765Z,1014.99
2023-05-01T09:20:01.969Z,1014.97
2023-05-01T09:21:02.109Z,1014.93
2023-05-01T09:22:02.834Z,1014.91
2023-05-01T09:23:02.530Z,1014.84
2023-05-01T09:24:02.688Z,1014.87
2023-05-01T09:25:02.865Z,1014.89
2023-05-01T09:26:03.068Z,1014.85
2023-05-01T09:27:03.236Z,1014.83
2023-05-01T09:28:03.460Z,1014.81
2023-05-01T09:29:03.641Z,1014.84
2023-05-01T09:30:03.918Z,1014.80
2023-05-01T09:31:03.998Z,1014.85
2023-05-01T09:32:04.198Z,1014.87
2023-05-01T09:33:04.926Z,1014.76
2023-05-01T09:34:04.526Z,1014.85
2023-05-01T09:35:04.720Z,1014.80
2023-05-01T09:36:04.913Z,1014.78
2023-05-01T09:37:05.123Z,1014.74
2023-05-01T09:38:05.344Z,1014.78
2023-05-01T09:39:05.623Z,1014.71
2023-05-01T09:40:05.746Z,1014.69
2023-05-01T09:41:06.036Z,1014.72
2023-05-01T09:42:06.128Z,1014.68
2023-05-01T09:43:06.446Z,1014.67
2023-05-01T09:44:06.563Z,1014.70
2023-05-01T09:45:06.737Z,1014.68
2023-05-01T09:46:07.163Z,1014.75
2023-05-01T09:47:07.210Z,1014.72
2023-05-01T09:48:07.413Z,1014.73
2023-05-01T09:49:07.559Z,1014.69
2023-05-01T09:50:07.802Z,1014.67
2023-05-01T09:51:08.009Z,1014.66
2023-05-01T09:52:08.115Z,1014.65
2023-05-01T09:53:08.335Z,1014.65
2023-05-01T09:54:08.544Z,1014.69
2023-05-01T09:55:08.699Z,1014.65
2023-05-01T09:56:08.870Z,1014.65
2023-05-01T09:57:09.095Z,1014.68
2023-05-01T09:58:09.284Z,1014.60
2023-05-01T09:59:09.464Z,1014.60
2023-05-01T10:00:09.660Z,1014.61
2023-05-01T10:01:09.881Z,1014.59
2023-05-01T10:02:10.102Z,1014.67
2023-05-01T10:03:10.353Z,1014.60
2023-05-01T10:04:10.561Z,1014.58
2023-05-01T10:05:10.650Z,1014.54
2023-05-01T10:06:10.914Z,1014.59
2023-05-01T10:07:11.046Z,1014.54
2023-05-01T10:08:11.255Z,1014.51
2023-05-01T10:09:11.429Z,1014.54
2023-05-01T10:10:11.644Z,1014.48
2023-05-01T10:11:11.858Z,1014.51
2023-05-01T10:12:12.075Z,1014.50
2023-05-01T10:13:12.312Z,1014.41
2023-05-01T10:14:12.521Z,1014.46
2023-05-01T10:15:24.499Z,1014.38
2023-05-01T10:16:12.897Z,1014.38
2023-05-01T10:17:13.168Z,1014.37
2023-05-01T10:18:13.391Z,1014.43
2023-05-01T10:19:13.481Z,1014.38
2023-05-01T10:20:13.695Z,1014.41
2023-05-01T10:21:13.900Z,1014.44
2023-05-01T10:22:14.080Z,1014.42
2023-05-01T10:23:14.361Z,1014.37
2023-05-01T10:24:14.503Z,1014.31
2023-05-01T10:25:14.714Z,1014.37
2023-05-01T10:26:14.918Z,1014.33
2023-05-01T10:27:15.133Z,1014.33
2023-05-01T10:28:15.365Z,1014.34
2023-05-01T10:29:15.537Z,1014.29
2023-05-01T10:30:15.816Z,1014.31
2023-05-01T10:31:16.004Z,1014.33
2023-05-01T10:32:16.141Z,1014.30
2023-05-01T10:33:16.438Z,1014.24
2023-05-01T10:34:16.586Z,1014.22
2023-05-01T10:35:16.760Z,1014.20
2023-05-01T10:36:16.980Z,1014.21
2023-05-01T10:37:17.189Z,1014.17
2023-05-01T10:38:17.417Z,1014.24
2023-05-01T10:39:17.605Z,1014.18
2023-05-01T10:40:17.784Z,1014.20
2023-05-01T10:41:17.997Z,1014.15
2023-05-01T10:42:18.178Z,1014.15
2023-05-01T10:43:18.401Z,1014.18
2023-05-01T10:44:18.609Z,1014.15
2023-05-01T10:45:18.789Z,1014.09
2023-05-01T10:46:19.133Z,1014.07
2023-05-01T10:47:19.246Z,1014.07
2023-05-01T10:48:19.430Z,1014.07
2023-05-01T10:49:19.604Z,1013.99
2023-05-01T10:50:19.822Z,1013.98
2023-05-01T10:51:20.039Z,1013.97
2023-05-01T10:52:20.218Z,1014.03
2023-05-01T10:53:20.440Z,1014.07
2023-05-01T10:54:20.644Z,1014.02
2023-05-01T10:55:20.870Z,1014.01
2023-05-01T10:56:21.087Z,1013.97
2023-05-01T10:57:21.312Z,1013.99
2023-05-01T10:58:21.490Z,1013.91
2023-05-01T10:59:21.717Z,1013.87
2023-05-01T11:00:21.846Z,1013.85
2023-05-01T11:01:22.101Z,1013.84
2023-05-01T11:02:22.382Z,1013.78
2023-05-01T11:03:22.503Z,1013.75
2023-05-01T11:04:22.679Z,1013.75
2023-05-01T11:05:35.797Z,1013.74
2023-05-01T11:06:23.142Z,1013.75
2023-05-01T11:07:23.294Z,1013.70
2023-05-01T11:08:23.481Z,1013.76
2023-05-01T11:09:23.648Z,1013.70
2023-05-01T11:10:23.841Z,1013.65
2023-05-01T11:11:24.031Z,1013.68
2023-05-01T11:12:24.214Z,1013.70
2023-05-01T11:13:24.449Z,1013.68
2023-05-01T11:14:24.606Z,1013.65
2023-05-01T11:15:24.823Z,1013.67
2023-05-01T11:16:25.063Z,1013.63
2023-05-01T11:17:25.276Z,1013.65
2023-05-01T11:18:25.451Z,1013.65
2023-05-01T11:19:26.841Z,1013.61
2023-05-01T11:20:25.844Z,1013.61
2023-05-01T11:21:26.043Z,1013.56
2023-05-01T11:22:26.214Z,1013.60
2023-05-01T11:23:26.470Z,1013.59
2023-05-01T11:24:26.620Z,1013.52
2023-05-01T11:25:26.838Z,1013.48
2023-05-01T11:26:27.049Z,1013.51
2023-05-01T11:27:27.255Z,1013.50
2023-05-01T11:28:27.502Z,1013.53
2023-05-01T11:29:27.683Z,1013.47
2023-05-01T11:30:27.910Z,1013.45
2023-05-01T11:31:28.157Z,1013.35
2023-05-01T11:32:28.353Z,1013.40
2023-05-01T11:33:28.531Z,1013.38
2023-05-01T11:34:28.713Z,1013.40
2023-05-01T11:35:28.924Z,1013.32
2023-05-01T11:36:29.142Z,1013.34
2023-05-01T11:37:29.358Z,1013.24
2023-05-01T11:38:29.565Z,1013.21
2023-05-01T11:39:29.735Z,1013.23
2023-05-01T11:40:29.953Z,1013.29
2023-05-01T11:41:30.131Z,1013.23
2023-05-01T11:42:30.365Z,1013.22
2023-05-01T11:43:30.596Z,1013.21
2023-05-01T11:44:30.779Z,1013.19
2023-05-01T11:45:31.064Z,1013.24
2023-05-01T11:46:31.365Z,1013.17
2023-05-01T11:47:31.408Z,1013.15
2023-05-01T11:48:31.635Z,1013.06
2023-05-01T11:49:31.827Z,1013.06
2023-05-01T11:50:32.024Z,1013.07
2023-05-01T11:51:32.233Z,1013.01
2023-05-01T11:52:32.432Z,1013.08
2023-05-01T11:53:32.664Z,1013.09
2023-05-01T11:54:32.855Z,1013.07
2023-05-01T11:55:33.029Z,1013.06
2023-05-01T11:56:33.229Z,1013.02
2023-05-01T11:57:33.414Z,1012.90
2023-05-01T11:58:33.670Z,1013.02
2023-05-01T11:59:33.815Z,1013.04
2023-05-01T12:00:34.129Z,1013.06
2023-05-01T12:01:34.247Z,1013.08
2023-05-01T12:02:34.509Z,1013.13
2023-05-01T12:03:34.738Z,1013.12
2023-05-01T12:04:35.003Z,1013.16
2023-05-01T12:05:35.050Z,1013.12
2023-05-01T12:06:35.267Z,1013.14
2023-05-01T12:07:35.463Z,1013.22
2023-05-01T12:08:35.715Z,1013.14